Time;durP1;ratioP1;P1;durP2;ratioP2;P2;SDS_P1;SDS_P2;PMS_P1;PMS_P2;Temp;Humidity;BMP_temperature;BMP_pressure;BME280_temperature;BME280_humidity;BME280_pressure;Samples;Min_cycle;Max_cycle;Signal;HPM_P1;HPM_P2
2022/11/15 00:02:19;;;;;;;1.00;0.60;;;10.60;33.40;;;;;;5139074;27;20451;-60
2022/11/15 00:04:46;;;;;;;1.03;0.60;;;10.60;24.80;;;;;;5138828;27;20508;-59
2022/11/15 00:07:13;;;;;;;5.07;0.73;;;10.60;25.50;;;;;;5139296;27;20455;-60
2022/11/15 00:09:40;;;;;;;3.20;0.60;;;10.60;22.50;;;;;;5139506;27;20878;-60
2022/11/15 00:12:07;;;;;;;0.90;0.60;;;10.60;30.10;;;;;;5138473;27;20882;-60
2022/11/15 00:14:36;;;;;;;1.03;0.67;;;10.60;24.40;;;;;;5138873;27;20492;-60
2022/11/15 00:17:03;;;;;;;0.80;0.60;;;10.60;34.20;;;;;;5139220;27;20469;-60
2022/11/15 00:19:30;;;;;;;2.50;0.60;;;10.60;41.00;;;;;;5139293;27;20440;-60
2022/11/15 00:21:57;;;;;;;0.93;0.50;;;10.60;32.50;;;;;;5139179;27;20874;-61
2022/11/15 00:24:23;;;;;;;0.90;0.50;;;10.60;43.40;;;;;;5139117;27;20935;-61
2022/11/15 00:26:50;;;;;;;1.63;0.50;;;10.70;45.10;;;;;;5139372;27;20935;-61
2022/11/15 00:29:17;;;;;;;0.70;0.50;;;10.70;26.70;;;;;;5139197;27;20879;-60
2022/11/15 00:31:46;;;;;;;3.90;0.60;;;10.70;19.00;;;;;;5138571;27;20451;-59
2022/11/15 00:34:13;;;;;;;0.80;0.50;;;10.80;11.50;;;;;;5138388;27;20439;-60
2022/11/15 00:36:40;;;;;;;1.43;0.50;;;10.90;19.40;;;;;;5139345;27;20508;-60
2022/11/15 00:39:07;;;;;;;0.80;0.50;;;10.80;15.30;;;;;;5139108;27;20455;-60
2022/11/15 00:41:34;;;;;;;0.60;0.50;;;10.80;35.70;;;;;;5138516;27;20500;-60
2022/11/15 00:44:01;;;;;;;1.90;0.60;;;10.80;18.00;;;;;;5139679;27;20508;-60
2022/11/15 00:46:28;;;;;;;0.77;0.40;;;10.80;9.70;;;;;;5139132;27;20485;-60
2022/11/15 00:48:57;;;;;;;0.70;0.50;;;10.70;23.80;;;;;;5138480;27;20513;-60
2022/11/15 00:51:24;;;;;;;1.23;0.40;;;10.70;28.60;;;;;;5138141;27;20443;-60
2022/11/15 00:53:51;;;;;;;1.40;0.53;;;10.70;35.60;;;;;;5138131;27;20795;-60
2022/11/15 00:56:17;;;;;;;0.97;0.40;;;10.60;18.70;;;;;;5137811;27;20827;-60
2022/11/15 00:58:44;;;;;;;0.60;0.50;;;10.60;20.00;;;;;;5138482;27;20448;-60
2022/11/15 01:01:13;;;;;;;0.90;0.50;;;10.60;21.30;;;;;;5137958;27;20931;-60
2022/11/15 01:03:41;;;;;;;0.97;0.50;;;10.60;14.80;;;;;;5138914;27;20455;-58
2022/11/15 01:06:11;;;;;;;0.90;0.60;;;10.60;28.70;;;;;;5138340;27;20540;-61
2022/11/15 01:08:39;;;;;;;1.07;0.60;;;10.60;27.30;;;;;;5138773;27;20462;-60
2022/11/15 01:11:09;;;;;;;1.20;0.60;;;10.60;22.00;;;;;;5138769;27;20444;-61
2022/11/15 01:13:37;;;;;;;1.00;0.47;;;10.60;15.70;;;;;;5138844;27;20455;-60
2022/11/15 01:16:08;;;;;;;0.70;0.43;;;10.60;25.50;;;;;;5138955;27;20444;-59
2022/11/15 01:18:35;;;;;;;1.80;0.50;;;10.50;28.30;;;;;;5138610;27;20455;-59
2022/11/15 01:21:06;;;;;;;1.83;0.50;;;10.50;44.00;;;;;;5138526;27;20444;-61
2022/11/15 01:23:35;;;;;;;0.93;0.53;;;10.50;50.00;;;;;;5138311;27;20471;-58
2022/11/15 01:26:02;;;;;;;0.80;0.50;;;10.50;52.90;;;;;;5137936;27;20472;-59
2022/11/15 01:28:32;;;;;;;1.37;0.50;;;10.40;64.50;;;;;;5138275;27;20883;-58
2022/11/15 01:31:00;;;;;;;1.00;0.60;;;10.30;87.20;;;;;;5138066;27;20450;-58
2022/11/15 01:33:27;;;;;;;0.97;0.60;;;10.30;82.20;;;;;;5138612;27;20451;-58
2022/11/15 01:35:54;;;;;;;1.10;0.50;;;10.20;93.30;;;;;;5138229;27;20906;-59
2022/11/15 01:38:21;;;;;;;0.70;0.50;;;10.10;96.70;;;;;;5138105;27;20456;-61
2022/11/15 01:40:50;;;;;;;2.00;0.60;;;10.10;95.20;;;;;;5138200;27;20806;-61
2022/11/15 01:43:24;;;;;;;0.80;0.40;;;10.10;98.00;;;;;;5138156;27;20950;-61
2022/11/15 01:45:55;;;;;;;0.90;0.50;;;10.10;98.30;;;;;;5138183;27;20482;-60
2022/11/15 01:48:26;;;;;;;0.80;0.50;;;10.10;99.70;;;;;;5137912;27;20556;-61
2022/11/15 01:50:54;;;;;;;1.37;0.40;;;10.10;99.90;;;;;;5137508;27;20447;-61
2022/11/15 01:53:25;;;;;;;1.00;0.50;;;10.00;94.70;;;;;;5137690;27;20459;-61
2022/11/15 01:55:54;;;;;;;1.10;0.50;;;10.00;99.90;;;;;;5138083;27;20802;-61
2022/11/15 01:58:21;;;;;;;0.80;0.50;;;9.90;99.90;;;;;;5138038;27;20497;-61
2022/11/15 02:00:49;;;;;;;1.70;0.50;;;9.90;99.90;;;;;;5137800;27;20454;-61
2022/11/15 02:03:16;;;;;;;0.97;0.50;;;9.90;99.90;;;;;;5138311;27;20735;-61
2022/11/15 02:05:44;;;;;;;0.70;0.43;;;9.90;99.90;;;;;;5137684;27;20513;-61
2022/11/15 02:08:19;;;;;;;0.90;0.40;;;10.00;99.90;;;;;;5136553;27;20512;-61
2022/11/15 02:10:46;;;;;;;0.70;0.40;;;10.00;99.90;;;;;;5135163;27;20451;-59
2022/11/15 02:13:16;;;;;;;0.90;0.50;;;9.90;99.90;;;;;;5136461;27;20452;-61
2022/11/15 02:15:52;;;;;;;0.70;0.50;;;9.90;99.90;;;;;;5136754;27;20447;-61
2022/11/15 02:18:25;;;;;;;1.83;0.50;;;9.90;99.90;;;;;;5136410;27;20455;-61
2022/11/15 02:21:18;;;;;;;0.70;0.40;;;9.80;95.70;;;;;;5136733;27;20905;-61
2022/11/15 02:24:26;;;;;;;0.70;0.40;;;9.80;94.10;;;;;;5137786;27;20452;-62
2022/11/15 02:27:16;;;;;;;1.17;0.43;;;9.70;86.00;;;;;;5132164;27;20475;-63
2022/11/15 02:30:04;;;;;;;0.70;0.40;;;9.70;92.70;;;;;;5136072;27;20504;-61
2022/11/15 02:32:39;;;;;;;2.33;0.50;;;9.60;96.50;;;;;;5136767;27;20452;-61
2022/11/15 02:35:17;;;;;;;1.90;0.47;;;9.60;97.00;;;;;;5135691;27;20797;-60
2022/11/15 02:37:48;;;;;;;0.90;0.40;;;9.50;99.60;;;;;;5137297;27;20737;-61
2022/11/15 02:40:27;;;;;;;0.80;0.50;;;9.50;99.90;;;;;;5137302;27;20942;-60
2022/11/15 02:45:50;;;;;;;0.70;0.40;;;9.50;99.90;;;;;;5135840;27;20527;-61
2022/11/15 02:48:20;;;;;;;0.90;0.50;;;9.50;98.10;;;;;;5135302;27;20790;-60
2022/11/15 02:50:48;;;;;;;0.83;0.40;;;9.60;99.90;;;;;;5136334;27;20504;-59
2022/11/15 02:53:15;;;;;;;0.60;0.40;;;9.60;99.90;;;;;;5132858;27;20456;-60
2022/11/15 02:55:47;;;;;;;0.83;0.40;;;9.60;99.90;;;;;;5113700;28;20436;-60
2022/11/15 02:58:46;;;;;;;1.10;0.60;;;9.60;99.90;;;;;;5114221;28;20460;-60
2022/11/15 03:01:22;;;;;;;1.20;0.60;;;9.60;99.90;;;;;;5115594;28;20444;-59
2022/11/15 03:04:00;;;;;;;2.73;0.70;;;9.50;99.90;;;;;;5115519;28;20493;-60
2022/11/15 03:06:35;;;;;;;1.20;0.60;;;9.40;99.90;;;;;;5116075;28;20480;-60
2022/11/15 03:09:08;;;;;;;1.30;0.70;;;9.40;99.90;;;;;;5116623;28;20457;-59
2022/11/15 03:11:40;;;;;;;1.07;0.70;;;9.30;99.90;;;;;;5115929;28;20502;-60
2022/11/15 03:14:15;;;;;;;0.97;0.60;;;9.20;99.90;;;;;;5116452;28;20460;-60
2022/11/15 03:16:49;;;;;;;0.80;0.50;;;9.10;99.90;;;;;;5116254;28;20447;-60
2022/11/15 03:19:27;;;;;;;1.00;0.50;;;9.10;99.90;;;;;;5116178;28;20448;-60
2022/11/15 03:21:56;;;;;;;1.10;0.60;;;9.10;99.90;;;;;;5116164;28;20883;-60
2022/11/15 03:24:25;;;;;;;0.90;0.70;;;9.10;99.90;;;;;;5116114;28;20445;-60
2022/11/15 03:26:54;;;;;;;0.87;0.50;;;9.20;99.90;;;;;;5115781;28;20473;-60
2022/11/15 03:29:25;;;;;;;1.83;0.53;;;9.20;99.90;;;;;;5115787;28;20480;-59
2022/11/15 03:31:58;;;;;;;0.90;0.60;;;9.20;99.90;;;;;;5116155;28;20478;-60
2022/11/15 03:34:31;;;;;;;1.47;0.70;;;9.30;99.90;;;;;;5115841;28;20444;-60
2022/11/15 03:36:58;;;;;;;1.17;0.50;;;9.40;99.90;;;;;;5116065;28;20440;-60
2022/11/15 03:39:27;;;;;;;0.80;0.47;;;9.50;97.60;;;;;;5115520;28;20448;-60
2022/11/15 03:42:04;;;;;;;0.90;0.50;;;9.50;95.60;;;;;;5115811;28;20444;-60
2022/11/15 03:44:37;;;;;;;0.70;0.43;;;9.60;93.30;;;;;;5116008;28;20493;-60
2022/11/15 03:47:09;;;;;;;0.87;0.50;;;9.60;99.90;;;;;;5115672;28;20488;-61
2022/11/15 03:49:43;;;;;;;1.03;0.50;;;9.60;99.90;;;;;;5135685;28;20505;-60
2022/11/15 03:52:11;;;;;;;0.60;0.40;;;9.60;99.90;;;;;;5136145;28;20455;-60
2022/11/15 03:54:48;;;;;;;0.60;0.40;;;9.70;99.90;;;;;;5136068;28;20874;-60
2022/11/15 03:57:15;;;;;;;1.17;0.47;;;9.70;99.90;;;;;;5136022;28;20451;-60
2022/11/15 03:59:42;;;;;;;0.80;0.50;;;9.70;99.90;;;;;;5135824;28;20504;-60
2022/11/15 04:02:09;;;;;;;0.60;0.40;;;9.70;99.90;;;;;;5135587;28;20451;-61
2022/11/15 04:04:37;;;;;;;0.53;0.40;;;9.80;99.90;;;;;;5135697;28;20447;-60
2022/11/15 04:07:04;;;;;;;0.90;0.60;;;9.80;99.90;;;;;;5134223;28;20532;-60
2022/11/15 04:09:31;;;;;;;0.70;0.40;;;9.80;99.90;;;;;;5135630;28;20794;-59
2022/11/15 04:11:58;;;;;;;0.73;0.60;;;9.70;99.90;;;;;;5134512;28;20443;-61
2022/11/15 04:14:25;;;;;;;2.97;0.50;;;9.80;99.90;;;;;;5135667;27;20444;-61
2022/11/15 04:16:52;;;;;;;0.97;0.50;;;9.70;99.90;;;;;;5138683;27;20516;-62
2022/11/15 04:25:00;;;;;;;1.33;0.70;;;9.70;99.90;;;;;;5023952;28;20744;-60
2022/11/15 04:27:27;;;;;;;1.80;0.70;;;9.60;99.90;;;;;;5101308;27;20543;-61
2022/11/15 04:29:54;;;;;;;1.13;0.60;;;9.50;99.90;;;;;;5139689;27;20448;-60
2022/11/15 04:32:21;;;;;;;1.10;0.70;;;9.50;99.90;;;;;;5139232;27;20456;-61
2022/11/15 04:34:48;;;;;;;5.00;0.50;;;9.60;99.90;;;;;;5139169;27;20443;-61
2022/11/15 04:37:14;;;;;;;0.60;0.50;;;9.70;99.90;;;;;;5138550;27;20971;-61
2022/11/15 04:39:44;;;;;;;1.33;0.50;;;9.80;92.80;;;;;;5139627;27;20444;-60
2022/11/15 04:42:11;;;;;;;1.47;1.00;;;9.90;77.60;;;;;;5139542;27;20508;-61
2022/11/15 04:44:38;;;;;;;0.90;0.53;;;9.90;70.80;;;;;;5139288;27;20452;-61
2022/11/15 04:47:05;;;;;;;1.13;0.50;;;10.00;90.30;;;;;;5138954;27;20480;-62
2022/11/15 04:49:32;;;;;;;1.70;0.50;;;10.00;70.10;;;;;;5138832;27;20850;-62
2022/11/15 04:51:59;;;;;;;1.00;0.47;;;10.00;73.40;;;;;;5127282;27;20449;-61
2022/11/15 04:54:26;;;;;;;0.70;0.50;;;10.00;68.70;;;;;;5117851;28;20440;-60
2022/11/15 04:56:55;;;;;;;0.87;0.60;;;9.90;62.90;;;;;;5118493;28;20489;-60
2022/11/15 04:59:22;;;;;;;0.87;0.50;;;9.90;85.10;;;;;;5099761;28;20444;-60
2022/11/15 05:01:49;;;;;;;1.57;0.50;;;9.90;93.60;;;;;;5117951;28;20449;-60
2022/11/15 05:04:21;;;;;;;0.60;0.40;;;9.90;85.50;;;;;;5118062;28;20441;-60
2022/11/15 05:06:52;;;;;;;0.90;0.50;;;9.90;89.80;;;;;;5116521;28;20515;-61
2022/11/15 05:09:19;;;;;;;0.67;0.40;;;9.90;94.50;;;;;;5116588;28;20639;-60
2022/11/15 05:11:47;;;;;;;0.67;0.40;;;9.80;97.90;;;;;;5116800;28;20448;-60
2022/11/15 05:14:16;;;;;;;1.50;0.50;;;9.80;99.90;;;;;;5116396;28;20810;-60
2022/11/15 05:16:43;;;;;;;0.80;0.40;;;9.90;99.90;;;;;;5117246;28;20445;-61
2022/11/15 05:19:10;;;;;;;1.37;0.40;;;9.90;95.30;;;;;;5116989;28;20522;-61
2022/11/15 05:21:37;;;;;;;3.00;0.50;;;9.90;95.20;;;;;;5117248;28;20514;-61
2022/11/15 05:24:05;;;;;;;0.70;0.40;;;9.80;92.80;;;;;;5137908;27;20500;-60
2022/11/15 05:26:32;;;;;;;0.80;0.40;;;9.80;91.10;;;;;;5137735;27;20479;-61
2022/11/15 05:29:00;;;;;;;1.17;0.40;;;9.80;95.90;;;;;;5138928;27;20481;-61
2022/11/15 05:31:29;;;;;;;1.43;0.50;;;9.80;97.40;;;;;;5130237;27;20509;-61
2022/11/15 05:33:57;;;;;;;0.60;0.40;;;9.80;93.10;;;;;;5115169;28;20456;-61
2022/11/15 05:36:32;;;;;;;1.53;0.50;;;9.80;95.80;;;;;;5117685;28;20441;-61
2022/11/15 05:38:59;;;;;;;1.00;0.50;;;9.80;97.40;;;;;;5117538;28;20501;-61
2022/11/15 05:41:31;;;;;;;1.40;0.70;;;9.80;91.00;;;;;;5130460;27;20518;-60
2022/11/15 05:43:59;;;;;;;1.20;0.60;;;9.80;82.20;;;;;;5138080;27;20455;-61
2022/11/15 05:46:26;;;;;;;1.53;0.60;;;9.90;91.80;;;;;;5137579;27;20532;-61
2022/11/15 05:48:55;;;;;;;24.67;14.30;;;9.90;92.00;;;;;;5136401;27;20544;-61
2022/11/15 05:51:23;;;;;;;4.00;1.37;;;9.90;93.60;;;;;;5129606;27;20982;-60
2022/11/15 05:53:51;;;;;;;1.77;0.80;;;9.90;96.70;;;;;;5136337;27;20460;-60
2022/11/15 05:56:18;;;;;;;0.87;0.60;;;10.00;90.20;;;;;;5136925;27;20509;-60
2022/11/15 05:58:45;;;;;;;1.20;0.70;;;9.90;93.70;;;;;;5136984;27;20935;-60
2022/11/15 06:01:13;;;;;;;1.40;0.60;;;9.80;97.90;;;;;;5137042;27;20938;-60
2022/11/15 06:03:39;;;;;;;1.30;0.70;;;9.80;99.90;;;;;;5135836;27;20801;-61
2022/11/15 06:06:08;;;;;;;3.77;0.83;;;9.70;99.90;;;;;;5135222;27;20552;-60
2022/11/15 06:08:35;;;;;;;0.90;0.70;;;9.60;99.90;;;;;;5135738;27;20508;-60
2022/11/15 06:11:06;;;;;;;1.20;0.70;;;9.50;99.90;;;;;;5136255;27;20451;-60
2022/11/15 06:13:33;;;;;;;1.20;0.80;;;9.40;99.90;;;;;;5134841;27;21149;-60
2022/11/15 06:16:01;;;;;;;1.40;0.70;;;9.30;99.90;;;;;;5134713;27;20448;-60
2022/11/15 06:18:28;;;;;;;1.13;0.70;;;9.30;99.90;;;;;;5136986;27;20451;-60
2022/11/15 06:20:59;;;;;;;1.13;0.70;;;9.30;99.90;;;;;;5135639;27;20488;-61
2022/11/15 06:23:27;;;;;;;3.67;0.77;;;9.30;99.90;;;;;;5136618;27;20509;-60
2022/11/15 06:25:54;;;;;;;0.90;0.60;;;9.30;99.90;;;;;;5135926;27;20439;-61
2022/11/15 06:28:21;;;;;;;1.53;0.70;;;9.30;99.90;;;;;;5135023;27;21077;-60
2022/11/15 06:30:48;;;;;;;1.23;0.60;;;9.40;99.90;;;;;;5135479;27;20459;-60
2022/11/15 06:33:15;;;;;;;1.13;0.70;;;9.40;99.90;;;;;;5135568;27;20459;-60
2022/11/15 06:35:42;;;;;;;1.23;0.70;;;9.40;99.90;;;;;;5135499;27;20752;-61
2022/11/15 06:38:10;;;;;;;1.10;0.60;;;9.40;99.90;;;;;;5135252;27;20753;-60
2022/11/15 06:40:40;;;;;;;1.60;0.85;;;9.40;99.90;;;;;;5133971;27;20414;-61
2022/11/15 06:43:07;;;;;;;1.20;0.77;;;9.40;99.90;;;;;;5135390;27;20520;-62
2022/11/15 06:45:34;;;;;;;1.63;0.80;;;9.40;99.90;;;;;;5134419;27;20498;-61
2022/11/15 06:48:02;;;;;;;1.30;0.83;;;9.50;99.90;;;;;;5124625;27;20480;-62
2022/11/15 06:50:29;;;;;;;1.07;0.73;;;9.50;99.90;;;;;;5114665;28;20448;-61
2022/11/15 06:52:55;;;;;;;1.80;0.63;;;9.50;99.90;;;;;;5114704;28;20888;-62
2022/11/15 06:55:22;;;;;;;1.40;0.73;;;9.40;99.90;;;;;;5134236;27;20513;-62
2022/11/15 06:57:52;;;;;;;0.80;0.60;;;9.30;99.90;;;;;;5135703;27;21122;-62
2022/11/15 07:00:21;;;;;;;0.90;0.60;;;9.30;99.90;;;;;;5130915;27;20512;-61
2022/11/15 07:02:48;;;;;;;1.50;0.70;;;9.30;99.90;;;;;;5134388;28;20907;-62
2022/11/15 07:05:16;;;;;;;3.17;0.63;;;9.40;99.90;;;;;;5117690;28;20437;-62
2022/11/15 07:07:43;;;;;;;1.10;0.60;;;9.50;99.90;;;;;;5114714;28;20484;-62
2022/11/15 07:10:10;;;;;;;1.27;0.70;;;9.60;99.90;;;;;;5129540;28;20439;-62
2022/11/15 07:12:37;;;;;;;1.10;0.60;;;9.70;99.90;;;;;;5134905;28;20460;-62
2022/11/15 07:15:07;;;;;;;1.30;0.60;;;9.80;99.90;;;;;;5120704;28;20452;-61
2022/11/15 07:17:34;;;;;;;1.00;0.60;;;9.80;99.90;;;;;;5113982;28;20452;-62
2022/11/15 07:20:01;;;;;;;0.73;0.40;;;9.90;99.90;;;;;;5113904;28;20462;-61
2022/11/15 07:22:28;;;;;;;2.70;0.70;;;10.10;99.90;;;;;;5133801;28;20808;-61
2022/11/15 07:24:55;;;;;;;0.77;0.50;;;10.30;81.40;;;;;;5123340;28;20440;-61
2022/11/15 07:27:22;;;;;;;0.70;0.60;;;10.30;70.60;;;;;;5112986;28;20484;-61
2022/11/15 07:29:49;;;;;;;0.90;0.60;;;10.40;85.10;;;;;;5122128;28;20444;-62
2022/11/15 07:32:17;;;;;;;0.80;0.50;;;10.40;41.60;;;;;;5133781;28;20504;-62
2022/11/15 07:34:47;;;;;;;0.97;0.60;;;10.40;48.90;;;;;;5126436;28;20880;-62
2022/11/15 07:37:14;;;;;;;1.20;0.60;;;10.40;34.20;;;;;;5123306;28;20827;-61
2022/11/15 07:39:41;;;;;;;1.20;0.70;;;10.40;46.30;;;;;;5129857;28;20449;-60
2022/11/15 07:44:52;;;;;;;1.50;0.60;;;10.60;26.90;;;;;;5115223;28;20550;-62
2022/11/15 07:47:21;;;;;;;1.80;0.60;;;10.70;19.50;;;;;;5113998;28;20491;-62
2022/11/15 07:49:48;;;;;;;1.67;0.50;;;10.70;17.70;;;;;;5116319;27;20535;-62
2022/11/15 07:52:15;;;;;;;2.00;0.70;;;10.80;16.90;;;;;;5117836;27;20450;-63
2022/11/15 07:54:42;;;;;;;1.20;0.53;;;10.80;11.70;;;;;;5127682;27;20199;-63
2022/11/15 07:57:10;;;;;;;0.93;0.60;;;10.90;1.00;;;;;;5115791;27;20464;-62
2022/11/15 07:59:37;;;;;;;1.30;0.70;;;11.00;10.40;;;;;;5115943;27;20533;-62
2022/11/15 08:02:04;;;;;;;0.87;0.60;;;11.10;1.00;;;;;;5116141;28;20612;-63
2022/11/15 08:04:32;;;;;;;1.33;0.60;;;11.20;1.00;;;;;;5119130;27;20447;-62
2022/11/15 08:06:59;;;;;;;0.90;0.60;;;11.40;1.00;;;;;;5129999;27;20471;-61
2022/11/15 08:09:26;;;;;;;1.13;0.40;;;11.40;1.00;;;;;;5122949;27;20449;-62
2022/11/15 08:11:53;;;;;;;1.37;0.50;;;11.50;1.00;;;;;;5123179;27;20449;-61
2022/11/15 08:14:21;;;;;;;0.90;0.60;;;11.60;1.00;;;;;;5119270;27;21057;-61
2022/11/15 08:16:49;;;;;;;1.00;0.50;;;11.70;1.00;;;;;;5114104;28;20440;-61
2022/11/15 08:19:16;;;;;;;1.13;0.50;;;11.80;1.00;;;;;;5116828;27;20940;-62
2022/11/15 08:21:44;;;;;;;1.23;0.57;;;12.00;1.00;;;;;;5137632;27;20439;-62
2022/11/15 08:24:11;;;;;;;0.73;0.60;;;12.00;1.00;;;;;;5135313;27;20460;-62
2022/11/15 08:26:39;;;;;;;1.00;0.60;;;11.90;1.00;;;;;;5135929;27;20505;-61
2022/11/15 08:29:07;;;;;;;1.30;0.60;;;11.90;1.00;;;;;;5137786;27;20751;-60
2022/11/15 08:31:34;;;;;;;0.80;0.50;;;11.70;1.00;;;;;;5116896;27;20444;-62
2022/11/15 08:34:02;;;;;;;1.77;0.70;;;11.70;1.00;;;;;;5121019;27;21208;-62
2022/11/15 08:36:29;;;;;;;1.00;0.60;;;11.60;1.00;;;;;;5137422;27;20473;-61
2022/11/15 08:38:57;;;;;;;0.90;0.60;;;11.80;1.00;;;;;;5136477;27;20790;-61
2022/11/15 08:41:29;;;;;;;2.40;0.67;;;11.70;1.00;;;;;;5120996;27;20449;-62
2022/11/15 08:43:55;;;;;;;1.17;0.50;;;11.70;1.00;;;;;;5116943;28;20892;-62
2022/11/15 08:46:23;;;;;;;0.87;0.57;;;11.70;1.00;;;;;;5116447;27;20517;-62
2022/11/15 08:48:50;;;;;;;1.43;0.50;;;11.70;1.00;;;;;;5136915;27;20491;-63
2022/11/15 08:51:17;;;;;;;0.90;0.53;;;11.90;1.00;;;;;;5135085;27;20855;-61
2022/11/15 08:53:44;;;;;;;0.80;0.50;;;12.10;1.00;;;;;;5131070;27;20452;-62
2022/11/15 08:56:15;;;;;;;1.73;0.60;;;12.30;1.00;;;;;;5134946;27;20455;-62
2022/11/15 08:58:43;;;;;;;1.70;0.50;;;12.40;1.00;;;;;;5135916;27;20447;-62
2022/11/15 09:01:16;;;;;;;3.60;0.50;;;12.50;1.00;;;;;;5126341;27;20479;-61
2022/11/15 09:03:43;;;;;;;2.60;0.50;;;12.50;1.00;;;;;;5116328;28;20456;-62
2022/11/15 09:06:10;;;;;;;0.87;0.50;;;12.70;1.00;;;;;;5124573;27;20443;-63
2022/11/15 09:08:37;;;;;;;0.63;0.40;;;12.80;1.00;;;;;;5136824;27;20475;-64
2022/11/15 09:11:05;;;;;;;1.27;0.40;;;13.00;1.00;;;;;;5134563;27;20440;-63
2022/11/15 09:13:33;;;;;;;1.80;0.60;;;13.10;1.00;;;;;;5136635;27;20452;-63
2022/11/15 09:16:01;;;;;;;1.03;0.50;;;13.20;1.00;;;;;;5129927;27;20445;-61
2022/11/15 09:18:28;;;;;;;0.63;0.40;;;13.30;1.00;;;;;;5117066;28;20730;-62
2022/11/15 09:20:57;;;;;;;0.80;0.50;;;13.30;1.00;;;;;;5118886;27;20440;-61
2022/11/15 09:23:24;;;;;;;1.63;0.40;;;13.40;1.00;;;;;;5127974;27;20505;-62
2022/11/15 09:25:51;;;;;;;3.13;0.73;;;13.70;1.00;;;;;;5130508;27;20876;-62
2022/11/15 09:28:18;;;;;;;1.73;0.53;;;13.70;99.90;;;;;;5114540;28;21043;-63
2022/11/15 09:30:47;;;;;;;0.97;0.60;;;13.70;1.00;;;;;;5116809;27;20911;-63
2022/11/15 09:33:14;;;;;;;0.70;0.50;;;13.60;1.00;;;;;;5134161;27;20508;-62
2022/11/15 09:35:41;;;;;;;1.60;0.50;;;13.50;1.00;;;;;;5133568;27;20441;-62
2022/11/15 09:38:08;;;;;;;1.13;0.40;;;13.60;1.00;;;;;;5133096;27;20471;-62
2022/11/15 09:40:38;;;;;;;2.00;0.40;;;13.60;1.00;;;;;;5135415;27;20448;-62
2022/11/15 09:43:28;;;;;;;1.00;0.50;;;13.70;1.00;;;;;;5116793;28;20525;-62
2022/11/15 09:46:08;;;;;;;0.90;0.50;;;13.80;1.00;;;;;;5116907;27;20493;-63
2022/11/15 09:48:56;;;;;;;1.90;0.83;;;13.90;1.00;;;;;;5114684;27;20488;-63
2022/11/15 09:51:30;;;;;;;1.53;0.60;;;13.90;1.00;;;;;;5115901;27;20472;-63
2022/11/15 09:54:05;;;;;;;1.67;0.70;;;14.00;1.00;;;;;;5115520;28;20486;-63
2022/11/15 09:56:35;;;;;;;1.10;0.70;;;14.10;1.00;;;;;;5117188;27;20446;-63
2022/11/15 09:59:21;;;;;;;1.00;0.70;;;14.20;99.90;;;;;;5117073;28;20517;-62
2022/11/15 10:02:00;;;;;;;2.90;0.70;;;14.20;99.90;;;;;;5123731;27;20508;-63
2022/11/15 10:04:28;;;;;;;1.17;0.70;;;14.30;99.90;;;;;;5123611;27;20646;-63
2022/11/15 10:07:05;;;;;;;1.47;0.60;;;14.30;99.90;;;;;;5120240;27;20895;-63
2022/11/15 10:09:39;;;;;;;1.23;0.80;;;14.30;1.00;;;;;;5121351;27;20490;-64
2022/11/15 10:12:07;;;;;;;1.33;0.53;;;14.40;1.00;;;;;;5126939;27;20515;-64
2022/11/15 10:14:36;;;;;;;0.90;0.53;;;14.30;1.00;;;;;;5135300;27;20547;-63
2022/11/15 10:17:18;;;;;;;1.73;0.60;;;14.30;1.00;;;;;;5126497;27;20501;-62
2022/11/15 10:19:56;;;;;;;1.70;0.50;;;14.40;1.00;;;;;;5121794;27;20513;-63
2022/11/15 10:22:27;;;;;;;0.93;0.50;;;14.40;1.00;;;;;;5132737;27;20456;-63
2022/11/15 10:25:12;;;;;;;1.17;0.50;;;14.40;1.00;;;;;;5114791;27;20494;-63
2022/11/15 10:27:40;;;;;;;1.00;0.60;;;14.40;1.00;;;;;;5123554;27;20562;-63
2022/11/15 10:30:14;;;;;;;0.80;0.50;;;14.30;1.00;;;;;;5134267;27;20443;-63
2022/11/15 10:32:44;;;;;;;0.80;0.50;;;14.30;1.00;;;;;;5115911;27;20456;-63
2022/11/15 10:35:20;;;;;;;1.57;0.50;;;14.40;1.00;;;;;;5113957;28;20452;-63
2022/11/15 10:37:48;;;;;;;1.40;0.53;;;14.40;1.00;;;;;;5112830;28;20452;-63
2022/11/15 10:40:20;;;;;;;2.27;0.50;;;14.50;1.00;;;;;;5127743;27;20439;-63
2022/11/15 10:42:48;;;;;;;1.53;0.50;;;14.30;1.00;;;;;;5112470;28;20453;-62
2022/11/15 10:45:26;;;;;;;1.67;0.40;;;14.40;1.00;;;;;;5112500;27;20456;-63
2022/11/15 10:47:54;;;;;;;0.77;0.50;;;14.40;1.00;;;;;;5130426;27;20536;-63
2022/11/15 10:50:33;;;;;;;1.80;0.50;;;14.40;1.00;;;;;;5120585;27;20504;-63
2022/11/15 10:53:03;;;;;;;0.80;0.50;;;14.50;1.00;;;;;;5093276;28;20453;-63
2022/11/15 10:55:32;;;;;;;0.60;0.40;;;14.60;1.00;;;;;;5096440;28;20941;-62
2022/11/15 10:58:04;;;;;;;2.90;0.40;;;14.70;1.00;;;;;;5099751;28;20453;-62
2022/11/15 11:00:35;;;;;;;0.70;0.40;;;14.70;99.90;;;;;;5091331;28;20943;-63
2022/11/15 11:03:10;;;;;;;0.80;0.40;;;14.60;99.90;;;;;;5094838;28;20504;-58
2022/11/15 11:05:39;;;;;;;0.80;0.33;;;14.60;1.00;;;;;;5090298;28;20441;-58
2022/11/15 11:08:22;;;;;;;1.83;0.47;;;14.60;1.00;;;;;;5103160;28;20481;-58
2022/11/15 11:10:54;;;;;;;0.70;0.50;;;14.60;1.00;;;;;;5095078;28;20948;-58
2022/11/15 11:13:24;;;;;;;1.10;0.30;;;14.60;1.00;;;;;;5109766;28;20560;-59
2022/11/15 11:15:58;;;;;;;1.17;0.40;;;14.50;1.00;;;;;;5108671;28;20767;-60
2022/11/15 11:18:33;;;;;;;0.80;0.50;;;14.50;1.00;;;;;;5110693;28;20456;-59
2022/11/15 11:21:09;;;;;;;0.70;0.40;;;14.40;1.00;;;;;;5097903;28;20495;-59
2022/11/15 11:23:45;;;;;;;1.17;0.50;;;14.40;1.00;;;;;;5111209;28;20513;-59
2022/11/15 11:26:30;;;;;;;2.07;0.70;;;14.50;1.00;;;;;;5109260;28;20623;-58
2022/11/15 11:29:09;;;;;;;0.97;0.60;;;14.60;1.00;;;;;;5103235;28;20999;-59
2022/11/15 11:31:47;;;;;;;0.77;0.53;;;14.60;1.00;;;;;;5116305;28;20436;-59
2022/11/15 11:34:22;;;;;;;0.83;0.57;;;14.60;1.00;;;;;;5112040;28;20444;-59
2022/11/15 11:36:54;;;;;;;1.23;0.50;;;14.60;1.00;;;;;;5110199;28;20449;-60
2022/11/15 11:39:31;;;;;;;1.20;0.50;;;14.70;1.00;;;;;;5109016;28;20438;-60
2022/11/15 11:42:05;;;;;;;0.70;0.40;;;14.70;1.00;;;;;;5097294;28;20472;-60
2022/11/15 11:44:39;;;;;;;1.47;0.40;;;14.80;1.00;;;;;;5107690;28;20444;-59
2022/11/15 11:47:11;;;;;;;1.53;0.30;;;14.90;1.00;;;;;;5101616;28;20448;-60
2022/11/15 11:49:46;;;;;;;0.80;0.47;;;14.90;1.00;;;;;;5108523;28;20484;-59
2022/11/15 11:52:18;;;;;;;0.60;0.40;;;15.00;1.00;;;;;;5109651;28;20555;-60
2022/11/15 11:54:54;;;;;;;1.30;0.50;;;15.10;1.00;;;;;;5106466;28;20456;-60
2022/11/15 11:57:30;;;;;;;0.90;0.40;;;15.20;1.00;;;;;;5105859;28;20907;-59
2022/11/15 12:00:03;;;;;;;1.80;0.40;;;15.10;1.00;;;;;;5098743;28;20445;-61
2022/11/15 12:02:36;;;;;;;0.60;0.37;;;15.00;1.00;;;;;;5099168;28;20465;-60
2022/11/15 12:05:12;;;;;;;1.53;0.40;;;15.00;1.00;;;;;;5111668;28;20456;-59
2022/11/15 12:07:41;;;;;;;0.67;0.40;;;15.00;1.00;;;;;;5109046;28;20452;-59
2022/11/15 12:10:19;;;;;;;0.70;0.40;;;15.20;1.00;;;;;;5098918;28;20452;-59
2022/11/15 12:12:53;;;;;;;0.90;0.50;;;15.20;1.00;;;;;;5106874;28;20484;-60
2022/11/15 12:15:24;;;;;;;5.87;0.50;;;15.30;1.00;;;;;;5100137;28;20441;-59
2022/11/15 12:17:51;;;;;;;1.17;0.50;;;15.30;1.00;;;;;;5100929;28;20465;-59
2022/11/15 12:20:23;;;;;;;1.10;0.50;;;15.40;1.00;;;;;;5096418;28;20923;-59
2022/11/15 12:22:56;;;;;;;0.80;0.53;;;15.30;1.00;;;;;;5096829;28;20453;-59
2022/11/15 12:25:30;;;;;;;1.00;0.50;;;15.30;1.00;;;;;;5102278;28;20482;-59
2022/11/15 12:28:01;;;;;;;0.77;0.60;;;15.30;1.00;;;;;;5097264;28;20831;-59
2022/11/15 12:30:42;;;;;;;0.80;0.53;;;15.30;1.00;;;;;;5101566;28;20438;-59
2022/11/15 12:33:30;;;;;;;0.70;0.40;;;15.20;1.00;;;;;;5096086;28;20479;-59
2022/11/15 12:36:02;;;;;;;0.70;0.50;;;15.30;1.00;;;;;;5100236;28;20457;-61
2022/11/15 12:38:56;;;;;;;0.80;0.50;;;15.20;1.00;;;;;;5097659;28;20499;-61
2022/11/15 12:41:25;;;;;;;1.77;0.50;;;15.20;1.00;;;;;;5084728;28;20448;-61
2022/11/15 12:43:52;;;;;;;2.63;0.40;;;15.10;1.00;;;;;;5095598;28;20457;-62
2022/11/15 12:46:45;;;;;;;0.67;0.30;;;15.10;1.00;;;;;;5105051;28;20469;-61
2022/11/15 12:49:33;;;;;;;0.97;0.60;;;15.10;1.00;;;;;;5096197;28;20574;-61
2022/11/15 12:52:10;;;;;;;1.00;0.50;;;15.10;1.00;;;;;;5100520;28;20458;-61
2022/11/15 12:54:57;;;;;;;1.73;0.57;;;15.00;1.00;;;;;;5103241;27;20465;-61
2022/11/15 12:57:36;;;;;;;0.70;0.40;;;15.10;1.00;;;;;;5110406;28;20514;-61
2022/11/15 13:00:22;;;;;;;0.67;0.40;;;15.00;1.00;;;;;;5094601;28;20506;-61
2022/11/15 13:02:49;;;;;;;0.97;0.40;;;15.00;1.00;;;;;;5093365;28;20900;-61
2022/11/15 13:05:55;;;;;;;0.60;0.40;;;14.90;1.00;;;;;;5095169;28;20441;-62
2022/11/15 13:08:55;;;;;;;1.00;0.70;;;14.80;1.00;;;;;;5092298;28;20477;-62
2022/11/15 13:11:59;;;;;;;1.10;0.70;;;14.90;1.00;;;;;;5093138;28;20555;-62
2022/11/15 13:14:51;;;;;;;1.20;0.70;;;14.90;1.00;;;;;;5111001;28;20444;-61
2022/11/15 13:17:40;;;;;;;1.30;0.87;;;14.80;1.00;;;;;;5095204;28;20489;-62
2022/11/15 13:20:27;;;;;;;2.30;0.90;;;14.80;1.00;;;;;;5099224;28;20473;-61
2022/11/15 13:23:02;;;;;;;1.93;0.90;;;14.70;1.00;;;;;;5097504;28;20611;-61
2022/11/15 13:26:02;;;;;;;1.97;0.80;;;14.60;1.00;;;;;;5102120;28;20903;-62
2022/11/15 13:28:33;;;;;;;1.97;0.93;;;14.50;1.00;;;;;;5097208;28;20482;-62